sensor_id;sensor_type;location;lat;lon;timestamp;temperature;humidity
6106;DHT22;3083;51.508;7.966;2022-11-09T00:00:36;14.60;99.90
6106;DHT22;3083;51.508;7.966;2022-11-09T00:03:03;14.60;99.90
6106;DHT22;3083;51.508;7.966;2022-11-09T00:05:30;14.60;99.90
6106;DHT22;3083;51.508;7.966;2022-11-09T00:07:57;14.50;99.90
6106;DHT22;3083;51.508;7.966;2022-11-09T00:10:25;14.50;99.90
6106;DHT22;3083;51.508;7.966;2022-11-09T00:12:52;14.60;99.90
6106;DHT22;3083;51.508;7.966;2022-11-09T00:15:19;14.60;99.90
6106;DHT22;3083;51.508;7.966;2022-11-09T00:17:46;14.60;99.90
6106;DHT22;3083;51.508;7.966;2022-11-09T00:20:13;14.60;99.90
6106;DHT22;3083;51.508;7.966;2022-11-09T00:22:40;14.60;99.90
6106;DHT22;3083;51.508;7.966;2022-11-09T00:25:08;14.60;99.90
6106;DHT22;3083;51.508;7.966;2022-11-09T00:27:36;14.60;99.90
6106;DHT22;3083;51.508;7.966;2022-11-09T00:30:04;14.60;99.90
6106;DHT22;3083;51.508;7.966;2022-11-09T00:32:31;14.60;99.90
6106;DHT22;3083;51.508;7.966;2022-11-09T00:34:58;14.70;99.90
6106;DHT22;3083;51.508;7.966;2022-11-09T00:37:25;14.60;99.90
6106;DHT22;3083;51.508;7.966;2022-11-09T00:39:54;14.60;99.90
6106;DHT22;3083;51.508;7.966;2022-11-09T00:42:21;14.70;99.90
6106;DHT22;3083;51.508;7.966;2022-11-09T00:44:50;14.60;99.90
6106;DHT22;3083;51.508;7.966;2022-11-09T00:47:16;14.70;99.90
6106;DHT22;3083;51.508;7.966;2022-11-09T00:49:43;14.70;99.90
6106;DHT22;3083;51.508;7.966;2022-11-09T00:52:10;14.70;99.90
6106;DHT22;3083;51.508;7.966;2022-11-09T00:54:37;14.70;99.90
6106;DHT22;3083;51.508;7.966;2022-11-09T00:57:04;14.70;99.90
6106;DHT22;3083;51.508;7.966;2022-11-09T00:59:31;14.70;99.90
6106;DHT22;3083;51.508;7.966;2022-11-09T01:01:59;14.70;99.90
6106;DHT22;3083;51.508;7.966;2022-11-09T01:04:26;14.70;99.90
6106;DHT22;3083;51.508;7.966;2022-11-09T01:06:53;14.70;99.90
6106;DHT22;3083;51.508;7.966;2022-11-09T01:09:20;14.70;99.90
6106;DHT22;3083;51.508;7.966;2022-11-09T01:11:47;14.70;99.90
6106;DHT22;3083;51.508;7.966;2022-11-09T01:14:14;14.60;99.90
6106;DHT22;3083;51.508;7.966;2022-11-09T01:16:41;14.60;99.90
6106;DHT22;3083;51.508;7.966;2022-11-09T01:19:10;14.60;99.90
6106;DHT22;3083;51.508;7.966;2022-11-09T01:21:37;14.60;99.90
6106;DHT22;3083;51.508;7.966;2022-11-09T01:24:04;14.60;99.90
6106;DHT22;3083;51.508;7.966;2022-11-09T01:26:31;14.50;99.90
6106;DHT22;3083;51.508;7.966;2022-11-09T01:28:58;14.50;99.90
6106;DHT22;3083;51.508;7.966;2022-11-09T01:31:25;14.50;99.90
6106;DHT22;3083;51.508;7.966;2022-11-09T01:33:52;14.50;99.90
6106;DHT22;3083;51.508;7.966;2022-11-09T01:36:22;14.50;99.90
6106;DHT22;3083;51.508;7.966;2022-11-09T01:38:49;14.50;99.90
6106;DHT22;3083;51.508;7.966;2022-11-09T01:41:19;14.50;99.90
6106;DHT22;3083;51.508;7.966;2022-11-09T01:44:05;14.50;99.90
6106;DHT22;3083;51.508;7.966;2022-11-09T01:46:36;14.50;99.90
6106;DHT22;3083;51.508;7.966;2022-11-09T01:49:10;14.40;99.90
6106;DHT22;3083;51.508;7.966;2022-11-09T01:51:44;14.40;99.90
6106;DHT22;3083;51.508;7.966;2022-11-09T01:54:16;14.30;99.90
6106;DHT22;3083;51.508;7.966;2022-11-09T01:56:45;14.40;99.90
6106;DHT22;3083;51.508;7.966;2022-11-09T01:59:17;14.30;99.90
6106;DHT22;3083;51.508;7.966;2022-11-09T02:01:45;14.30;99.90
6106;DHT22;3083;51.508;7.966;2022-11-09T02:04:15;14.30;99.90
6106;DHT22;3083;51.508;7.966;2022-11-09T02:06:47;14.30;99.90
6106;DHT22;3083;51.508;7.966;2022-11-09T02:09:20;14.30;99.90
6106;DHT22;3083;51.508;7.966;2022-11-09T02:11:49;14.30;99.90
6106;DHT22;3083;51.508;7.966;2022-11-09T02:14:17;14.30;99.90
6106;DHT22;3083;51.508;7.966;2022-11-09T02:16:45;14.30;99.90
6106;DHT22;3083;51.508;7.966;2022-11-09T02:19:12;14.30;99.90
6106;DHT22;3083;51.508;7.966;2022-11-09T02:21:41;14.30;99.90
6106;DHT22;3083;51.508;7.966;2022-11-09T02:24:08;14.20;99.90
6106;DHT22;3083;51.508;7.966;2022-11-09T02:26:39;14.30;99.90
6106;DHT22;3083;51.508;7.966;2022-11-09T02:29:09;14.30;99.90
6106;DHT22;3083;51.508;7.966;2022-11-09T02:31:38;14.30;99.90
6106;DHT22;3083;51.508;7.966;2022-11-09T02:34:08;14.30;99.90
6106;DHT22;3083;51.508;7.966;2022-11-09T02:36:36;14.20;99.90
6106;DHT22;3083;51.508;7.966;2022-11-09T02:39:05;14.20;99.90
6106;DHT22;3083;51.508;7.966;2022-11-09T02:41:36;14.20;99.90
6106;DHT22;3083;51.508;7.966;2022-11-09T02:44:05;14.20;99.90
6106;DHT22;3083;51.508;7.966;2022-11-09T02:46:34;14.20;99.90
6106;DHT22;3083;51.508;7.966;2022-11-09T02:49:03;14.20;99.90
6106;DHT22;3083;51.508;7.966;2022-11-09T02:51:30;14.10;99.90
6106;DHT22;3083;51.508;7.966;2022-11-09T02:53:57;14.10;99.90
6106;DHT22;3083;51.508;7.966;2022-11-09T02:56:25;14.10;99.90
6106;DHT22;3083;51.508;7.966;2022-11-09T02:58:52;14.10;99.90
6106;DHT22;3083;51.508;7.966;2022-11-09T03:01:19;14.00;99.90
6106;DHT22;3083;51.508;7.966;2022-11-09T03:03:46;14.10;99.90
6106;DHT22;3083;51.508;7.966;2022-11-09T03:06:13;14.00;99.90
6106;DHT22;3083;51.508;7.966;2022-11-09T03:08:40;14.00;99.90
6106;DHT22;3083;51.508;7.966;2022-11-09T03:11:07;14.00;99.90
6106;DHT22;3083;51.508;7.966;2022-11-09T03:13:36;14.00;99.90
6106;DHT22;3083;51.508;7.966;2022-11-09T03:16:04;14.00;99.90
6106;DHT22;3083;51.508;7.966;2022-11-09T03:18:31;14.00;99.90
6106;DHT22;3083;51.508;7.966;2022-11-09T03:21:01;13.90;99.90
6106;DHT22;3083;51.508;7.966;2022-11-09T03:23:28;13.90;99.90
6106;DHT22;3083;51.508;7.966;2022-11-09T03:25:55;13.90;99.90
6106;DHT22;3083;51.508;7.966;2022-11-09T03:28:22;13.90;99.90
6106;DHT22;3083;51.508;7.966;2022-11-09T03:30:51;13.90;99.90
6106;DHT22;3083;51.508;7.966;2022-11-09T03:33:18;13.90;99.90
6106;DHT22;3083;51.508;7.966;2022-11-09T03:35:44;13.90;99.90
6106;DHT22;3083;51.508;7.966;2022-11-09T03:38:12;13.90;99.90
6106;DHT22;3083;51.508;7.966;2022-11-09T03:40:39;13.90;99.90
6106;DHT22;3083;51.508;7.966;2022-11-09T03:43:06;13.80;99.90
6106;DHT22;3083;51.508;7.966;2022-11-09T03:45:33;13.90;99.90
6106;DHT22;3083;51.508;7.966;2022-11-09T03:48:01;13.80;99.90
6106;DHT22;3083;51.508;7.966;2022-11-09T03:50:30;13.80;99.90
6106;DHT22;3083;51.508;7.966;2022-11-09T03:52:58;13.80;99.90
6106;DHT22;3083;51.508;7.966;2022-11-09T03:55:25;13.80;99.90
6106;DHT22;3083;51.508;7.966;2022-11-09T03:57:53;13.80;99.90
6106;DHT22;3083;51.508;7.966;2022-11-09T04:00:21;13.80;99.90
6106;DHT22;3083;51.508;7.966;2022-11-09T04:02:48;13.80;99.90
6106;DHT22;3083;51.508;7.966;2022-11-09T04:05:17;13.80;99.90
6106;DHT22;3083;51.508;7.966;2022-11-09T04:07:48;13.90;99.90
6106;DHT22;3083;51.508;7.966;2022-11-09T04:10:15;13.90;99.90
6106;DHT22;3083;51.508;7.966;2022-11-09T04:12:43;13.90;99.90
6106;DHT22;3083;51.508;7.966;2022-11-09T04:15:10;13.90;99.90
6106;DHT22;3083;51.508;7.966;2022-11-09T04:17:37;13.90;99.90
6106;DHT22;3083;51.508;7.966;2022-11-09T04:20:06;13.90;99.90
6106;DHT22;3083;51.508;7.966;2022-11-09T04:22:34;13.90;99.90
6106;DHT22;3083;51.508;7.966;2022-11-09T04:25:01;13.90;99.90
6106;DHT22;3083;51.508;7.966;2022-11-09T04:27:28;14.00;99.90
6106;DHT22;3083;51.508;7.966;2022-11-09T04:29:55;14.00;99.90
6106;DHT22;3083;51.508;7.966;2022-11-09T04:32:22;14.00;99.90
6106;DHT22;3083;51.508;7.966;2022-11-09T04:34:49;13.90;99.90
6106;DHT22;3083;51.508;7.966;2022-11-09T04:37:16;13.90;99.90
6106;DHT22;3083;51.508;7.966;2022-11-09T04:39:45;13.90;99.90
6106;DHT22;3083;51.508;7.966;2022-11-09T04:42:12;13.90;99.90
6106;DHT22;3083;51.508;7.966;2022-11-09T04:44:38;13.90;99.90
6106;DHT22;3083;51.508;7.966;2022-11-09T04:47:05;13.80;99.90
6106;DHT22;3083;51.508;7.966;2022-11-09T04:49:32;13.90;99.90
6106;DHT22;3083;51.508;7.966;2022-11-09T04:51:59;13.90;99.90
6106;DHT22;3083;51.508;7.966;2022-11-09T04:54:26;13.80;99.90
6106;DHT22;3083;51.508;7.966;2022-11-09T04:56:54;13.80;99.90
6106;DHT22;3083;51.508;7.966;2022-11-09T04:59:21;13.80;99.90
6106;DHT22;3083;51.508;7.966;2022-11-09T05:01:48;13.80;99.90
6106;DHT22;3083;51.508;7.966;2022-11-09T05:04:15;13.80;99.90
6106;DHT22;3083;51.508;7.966;2022-11-09T05:06:42;13.80;99.90
6106;DHT22;3083;51.508;7.966;2022-11-09T05:09:09;13.80;99.90
6106;DHT22;3083;51.508;7.966;2022-11-09T05:11:36;13.80;99.90
6106;DHT22;3083;51.508;7.966;2022-11-09T05:14:04;13.80;99.90
6106;DHT22;3083;51.508;7.966;2022-11-09T05:16:31;13.90;99.90
6106;DHT22;3083;51.508;7.966;2022-11-09T05:18:58;13.80;99.90
6106;DHT22;3083;51.508;7.966;2022-11-09T05:21:25;13.80;99.90
6106;DHT22;3083;51.508;7.966;2022-11-09T05:23:52;13.90;99.90
6106;DHT22;3083;51.508;7.966;2022-11-09T05:26:25;13.90;99.90
6106;DHT22;3083;51.508;7.966;2022-11-09T05:28:52;13.90;99.90
6106;DHT22;3083;51.508;7.966;2022-11-09T05:31:21;13.80;99.90
6106;DHT22;3083;51.508;7.966;2022-11-09T05:33:48;13.90;99.90
6106;DHT22;3083;51.508;7.966;2022-11-09T05:36:16;13.90;99.90
6106;DHT22;3083;51.508;7.966;2022-11-09T05:38:43;13.90;99.90
6106;DHT22;3083;51.508;7.966;2022-11-09T05:41:10;13.90;99.90
6106;DHT22;3083;51.508;7.966;2022-11-09T05:43:37;13.80;99.90
6106;DHT22;3083;51.508;7.966;2022-11-09T05:46:05;13.80;99.90
6106;DHT22;3083;51.508;7.966;2022-11-09T05:48:33;13.80;99.90
6106;DHT22;3083;51.508;7.966;2022-11-09T05:51:00;13.80;99.90
6106;DHT22;3083;51.508;7.966;2022-11-09T05:53:28;13.80;99.90
6106;DHT22;3083;51.508;7.966;2022-11-09T05:55:55;13.80;99.90
6106;DHT22;3083;51.508;7.966;2022-11-09T05:58:22;13.80;99.90
6106;DHT22;3083;51.508;7.966;2022-11-09T06:00:49;13.80;99.90
6106;DHT22;3083;51.508;7.966;2022-11-09T06:03:16;13.70;99.90
6106;DHT22;3083;51.508;7.966;2022-11-09T06:05:44;13.80;99.90
6106;DHT22;3083;51.508;7.966;2022-11-09T06:08:13;13.70;99.90
6106;DHT22;3083;51.508;7.966;2022-11-09T06:10:41;13.80;99.90
6106;DHT22;3083;51.508;7.966;2022-11-09T06:13:09;13.80;99.90
6106;DHT22;3083;51.508;7.966;2022-11-09T06:15:36;13.80;99.90
6106;DHT22;3083;51.508;7.966;2022-11-09T06:18:03;13.80;99.90
6106;DHT22;3083;51.508;7.966;2022-11-09T06:20:30;13.90;99.90
6106;DHT22;3083;51.508;7.966;2022-11-09T06:23:00;13.90;99.90
6106;DHT22;3083;51.508;7.966;2022-11-09T06:25:27;13.90;99.90
6106;DHT22;3083;51.508;7.966;2022-11-09T06:27:54;13.90;99.90
6106;DHT22;3083;51.508;7.966;2022-11-09T06:30:22;13.90;99.90
6106;DHT22;3083;51.508;7.966;2022-11-09T06:32:49;13.90;99.90
6106;DHT22;3083;51.508;7.966;2022-11-09T06:35:16;13.80;99.90
6106;DHT22;3083;51.508;7.966;2022-11-09T06:37:43;13.80;99.90
6106;DHT22;3083;51.508;7.966;2022-11-09T06:40:13;13.80;99.90
6106;DHT22;3083;51.508;7.966;2022-11-09T06:42:40;13.70;99.90
6106;DHT22;3083;51.508;7.966;2022-11-09T06:45:07;13.70;99.90
6106;DHT22;3083;51.508;7.966;2022-11-09T06:47:34;13.70;99.90
6106;DHT22;3083;51.508;7.966;2022-11-09T06:50:01;13.70;99.90
6106;DHT22;3083;51.508;7.966;2022-11-09T06:52:28;13.60;99.90
6106;DHT22;3083;51.508;7.966;2022-11-09T06:54:55;13.60;99.90
6106;DHT22;3083;51.508;7.966;2022-11-09T06:57:24;13.50;99.90
6106;DHT22;3083;51.508;7.966;2022-11-09T06:59:50;13.40;99.90
6106;DHT22;3083;51.508;7.966;2022-11-09T07:02:17;13.40;99.90
6106;DHT22;3083;51.508;7.966;2022-11-09T07:04:44;13.30;99.90
6106;DHT22;3083;51.508;7.966;2022-11-09T07:07:11;13.30;99.90
6106;DHT22;3083;51.508;7.966;2022-11-09T07:09:38;13.30;99.90
6106;DHT22;3083;51.508;7.966;2022-11-09T07:12:05;13.30;99.90
6106;DHT22;3083;51.508;7.966;2022-11-09T07:14:34;13.20;99.90
6106;DHT22;3083;51.508;7.966;2022-11-09T07:17:02;13.20;99.90
6106;DHT22;3083;51.508;7.966;2022-11-09T07:19:29;13.10;99.90
6106;DHT22;3083;51.508;7.966;2022-11-09T07:21:56;13.10;99.90
6106;DHT22;3083;51.508;7.966;2022-11-09T07:24:23;13.10;99.90
6106;DHT22;3083;51.508;7.966;2022-11-09T07:26:50;13.00;99.90
6106;DHT22;3083;51.508;7.966;2022-11-09T07:29:17;13.00;99.90
6106;DHT22;3083;51.508;7.966;2022-11-09T07:31:45;13.00;99.90
6106;DHT22;3083;51.508;7.966;2022-11-09T07:34:12;13.00;99.90
6106;DHT22;3083;51.508;7.966;2022-11-09T07:36:40;12.90;99.90
6106;DHT22;3083;51.508;7.966;2022-11-09T07:39:06;12.90;99.90
6106;DHT22;3083;51.508;7.966;2022-11-09T07:41:33;12.90;99.90
6106;DHT22;3083;51.508;7.966;2022-11-09T07:44:00;12.80;99.90
6106;DHT22;3083;51.508;7.966;2022-11-09T07:46:27;12.80;99.90
6106;DHT22;3083;51.508;7.966;2022-11-09T07:48:55;12.70;99.90
6106;DHT22;3083;51.508;7.966;2022-11-09T07:51:22;12.70;99.90
6106;DHT22;3083;51.508;7.966;2022-11-09T07:53:49;12.70;99.90
6106;DHT22;3083;51.508;7.966;2022-11-09T07:56:16;12.60;99.90
6106;DHT22;3083;51.508;7.966;2022-11-09T07:58:43;12.50;99.90
6106;DHT22;3083;51.508;7.966;2022-11-09T08:01:10;12.50;99.90
6106;DHT22;3083;51.508;7.966;2022-11-09T08:03:37;12.50;99.90
6106;DHT22;3083;51.508;7.966;2022-11-09T08:06:05;12.40;99.90
6106;DHT22;3083;51.508;7.966;2022-11-09T08:08:32;12.40;99.90
6106;DHT22;3083;51.508;7.966;2022-11-09T08:10:59;12.40;99.90
6106;DHT22;3083;51.508;7.966;2022-11-09T08:13:26;12.40;99.90
6106;DHT22;3083;51.508;7.966;2022-11-09T08:15:53;12.40;99.90
6106;DHT22;3083;51.508;7.966;2022-11-09T08:18:21;12.40;99.90
6106;DHT22;3083;51.508;7.966;2022-11-09T08:20:48;12.40;99.90
6106;DHT22;3083;51.508;7.966;2022-11-09T08:23:18;12.30;99.90
6106;DHT22;3083;51.508;7.966;2022-11-09T08:25:46;12.30;99.90
6106;DHT22;3083;51.508;7.966;2022-11-09T08:28:13;12.30;99.90
6106;DHT22;3083;51.508;7.966;2022-11-09T08:30:42;12.40;99.90
6106;DHT22;3083;51.508;7.966;2022-11-09T08:33:09;12.40;99.90
6106;DHT22;3083;51.508;7.966;2022-11-09T08:35:37;12.50;99.90
6106;DHT22;3083;51.508;7.966;2022-11-09T08:38:04;12.40;99.90
6106;DHT22;3083;51.508;7.966;2022-11-09T08:40:33;12.40;99.90
6106;DHT22;3083;51.508;7.966;2022-11-09T08:43:01;12.40;99.90
6106;DHT22;3083;51.508;7.966;2022-11-09T08:45:31;12.50;99.90
6106;DHT22;3083;51.508;7.966;2022-11-09T08:47:59;12.50;99.90
6106;DHT22;3083;51.508;7.966;2022-11-09T08:50:26;12.50;99.90
6106;DHT22;3083;51.508;7.966;2022-11-09T08:52:53;12.60;99.90
6106;DHT22;3083;51.508;7.966;2022-11-09T08:55:20;12.60;99.90
6106;DHT22;3083;51.508;7.966;2022-11-09T08:57:51;12.70;99.90
6106;DHT22;3083;51.508;7.966;2022-11-09T09:00:19;12.80;99.90
6106;DHT22;3083;51.508;7.966;2022-11-09T09:02:46;12.80;99.90
6106;DHT22;3083;51.508;7.966;2022-11-09T09:05:13;13.00;99.90
6106;DHT22;3083;51.508;7.966;2022-11-09T09:07:40;13.10;99.90
6106;DHT22;3083;51.508;7.966;2022-11-09T09:10:07;13.40;99.90
6106;DHT22;3083;51.508;7.966;2022-11-09T09:12:34;13.60;99.90
6106;DHT22;3083;51.508;7.966;2022-11-09T09:15:03;13.90;99.90
6106;DHT22;3083;51.508;7.966;2022-11-09T09:17:30;14.10;99.90
6106;DHT22;3083;51.508;7.966;2022-11-09T09:20:00;14.30;99.90
6106;DHT22;3083;51.508;7.966;2022-11-09T09:22:26;14.50;99.90
6106;DHT22;3083;51.508;7.966;2022-11-09T09:24:53;14.60;99.90
6106;DHT22;3083;51.508;7.966;2022-11-09T09:27:20;14.70;99.90
6106;DHT22;3083;51.508;7.966;2022-11-09T09:29:47;14.90;99.90
6106;DHT22;3083;51.508;7.966;2022-11-09T09:32:16;15.10;99.90
6106;DHT22;3083;51.508;7.966;2022-11-09T09:34:42;15.20;99.90
6106;DHT22;3083;51.508;7.966;2022-11-09T09:37:09;15.30;99.90
6106;DHT22;3083;51.508;7.966;2022-11-09T09:39:36;15.20;99.90
6106;DHT22;3083;51.508;7.966;2022-11-09T09:42:05;15.20;99.90
6106;DHT22;3083;51.508;7.966;2022-11-09T09:44:38;15.10;99.90
6106;DHT22;3083;51.508;7.966;2022-11-09T09:47:10;15.00;99.90
6106;DHT22;3083;51.508;7.966;2022-11-09T09:49:43;14.90;99.90
6106;DHT22;3083;51.508;7.966;2022-11-09T09:52:17;14.80;99.90
6106;DHT22;3083;51.508;7.966;2022-11-09T09:54:52;14.60;99.90
6106;DHT22;3083;51.508;7.966;2022-11-09T09:57:22;14.40;99.90
6106;DHT22;3083;51.508;7.966;2022-11-09T09:59:52;14.30;99.90
6106;DHT22;3083;51.508;7.966;2022-11-09T10:02:22;14.30;99.90
6106;DHT22;3083;51.508;7.966;2022-11-09T10:04:51;14.20;99.90
6106;DHT22;3083;51.508;7.966;2022-11-09T10:07:26;14.10;99.90
6106;DHT22;3083;51.508;7.966;2022-11-09T10:10:21;14.10;99.90
6106;DHT22;3083;51.508;7.966;2022-11-09T10:13:05;14.40;99.90
6106;DHT22;3083;51.508;7.966;2022-11-09T10:15:39;14.60;99.90
6106;DHT22;3083;51.508;7.966;2022-11-09T10:18:25;14.90;99.90
6106;DHT22;3083;51.508;7.966;2022-11-09T10:21:08;15.20;99.90
6106;DHT22;3083;51.508;7.966;2022-11-09T10:23:46;15.40;99.90
6106;DHT22;3083;51.508;7.966;2022-11-09T10:26:18;15.60;99.90
6106;DHT22;3083;51.508;7.966;2022-11-09T10:28:51;15.70;99.90
6106;DHT22;3083;51.508;7.966;2022-11-09T10:31:21;15.80;99.90
6106;DHT22;3083;51.508;7.966;2022-11-09T10:33:53;15.90;99.90
6106;DHT22;3083;51.508;7.966;2022-11-09T10:36:29;15.90;99.90
6106;DHT22;3083;51.508;7.966;2022-11-09T10:38:59;15.90;99.90
6106;DHT22;3083;51.508;7.966;2022-11-09T10:41:30;15.90;99.90
6106;DHT22;3083;51.508;7.966;2022-11-09T10:43:58;15.90;99.90
6106;DHT22;3083;51.508;7.966;2022-11-09T10:46:25;15.90;99.90
6106;DHT22;3083;51.508;7.966;2022-11-09T10:48:53;15.90;99.90
6106;DHT22;3083;51.508;7.966;2022-11-09T10:51:38;15.90;99.90
6106;DHT22;3083;51.508;7.966;2022-11-09T10:54:18;16.00;99.90
6106;DHT22;3083;51.508;7.966;2022-11-09T10:56:47;16.10;99.90
6106;DHT22;3083;51.508;7.966;2022-11-09T10:59:36;16.20;99.90
6106;DHT22;3083;51.508;7.966;2022-11-09T11:02:40;16.20;99.90
6106;DHT22;3083;51.508;7.966;2022-11-09T11:05:28;16.10;99.90
6106;DHT22;3083;51.508;7.966;2022-11-09T11:08:21;16.00;99.90
6106;DHT22;3083;51.508;7.966;2022-11-09T11:10:48;16.00;99.90
6106;DHT22;3083;51.508;7.966;2022-11-09T11:13:21;16.00;99.90
6106;DHT22;3083;51.508;7.966;2022-11-09T11:15:48;16.10;99.90
6106;DHT22;3083;51.508;7.966;2022-11-09T11:18:19;16.20;99.90
6106;DHT22;3083;51.508;7.966;2022-11-09T11:20:48;16.30;99.90
6106;DHT22;3083;51.508;7.966;2022-11-09T11:23:30;16.40;99.90
6106;DHT22;3083;51.508;7.966;2022-11-09T11:26:15;16.60;99.90
6106;DHT22;3083;51.508;7.966;2022-11-09T11:28:49;16.90;99.90
6106;DHT22;3083;51.508;7.966;2022-11-09T11:31:19;17.00;99.90
6106;DHT22;3083;51.508;7.966;2022-11-09T11:33:46;17.00;99.90
6106;DHT22;3083;51.508;7.966;2022-11-09T11:36:19;17.00;99.90
6106;DHT22;3083;51.508;7.966;2022-11-09T11:38:56;17.10;99.90
6106;DHT22;3083;51.508;7.966;2022-11-09T11:41:47;17.10;99.90
6106;DHT22;3083;51.508;7.966;2022-11-09T11:44:26;17.10;99.90
6106;DHT22;3083;51.508;7.966;2022-11-09T11:47:01;17.10;99.90
6106;DHT22;3083;51.508;7.966;2022-11-09T11:49:45;16.90;99.90
6106;DHT22;3083;51.508;7.966;2022-11-09T11:52:22;16.70;99.90
6106;DHT22;3083;51.508;7.966;2022-11-09T11:55:06;16.60;99.90
6106;DHT22;3083;51.508;7.966;2022-11-09T11:57:42;16.40;99.90
6106;DHT22;3083;51.508;7.966;2022-11-09T12:00:13;16.40;99.90
6106;DHT22;3083;51.508;7.966;2022-11-09T12:06:16;16.30;99.90
6106;DHT22;3083;51.508;7.966;2022-11-09T12:09:12;16.20;99.90
6106;DHT22;3083;51.508;7.966;2022-11-09T12:11:56;16.10;99.90
6106;DHT22;3083;51.508;7.966;2022-11-09T12:14:33;16.00;99.90
6106;DHT22;3083;51.508;7.966;2022-11-09T12:17:12;15.90;99.90
6106;DHT22;3083;51.508;7.966;2022-11-09T12:19:51;15.90;99.90
6106;DHT22;3083;51.508;7.966;2022-11-09T12:22:31;15.90;99.90
6106;DHT22;3083;51.508;7.966;2022-11-09T12:25:04;15.80;99.90
6106;DHT22;3083;51.508;7.966;2022-11-09T12:27:46;15.80;99.90
6106;DHT22;3083;51.508;7.966;2022-11-09T12:30:17;15.80;99.90
6106;DHT22;3083;51.508;7.966;2022-11-09T12:32:49;15.80;99.90
6106;DHT22;3083;51.508;7.966;2022-11-09T12:35:23;15.80;99.90
6106;DHT22;3083;51.508;7.966;2022-11-09T12:37:55;15.80;99.90
6106;DHT22;3083;51.508;7.966;2022-11-09T12:40:25;15.90;99.90
6106;DHT22;3083;51.508;7.966;2022-11-09T12:43:01;15.90;99.90
6106;DHT22;3083;51.508;7.966;2022-11-09T12:45:32;15.90;99.90
6106;DHT22;3083;51.508;7.966;2022-11-09T12:48:03;15.90;99.90
6106;DHT22;3083;51.508;7.966;2022-11-09T12:50:32;15.90;99.90
6106;DHT22;3083;51.508;7.966;2022-11-09T12:53:02;15.80;99.90
6106;DHT22;3083;51.508;7.966;2022-11-09T12:55:36;15.80;99.90
6106;DHT22;3083;51.508;7.966;2022-11-09T12:58:06;15.70;99.90
6106;DHT22;3083;51.508;7.966;2022-11-09T13:00:51;15.70;99.90
6106;DHT22;3083;51.508;7.966;2022-11-09T13:03:22;15.60;99.90
6106;DHT22;3083;51.508;7.966;2022-11-09T13:06:15;15.50;99.90
6106;DHT22;3083;51.508;7.966;2022-11-09T13:08:55;15.40;99.90
6106;DHT22;3083;51.508;7.966;2022-11-09T13:11:35;15.40;99.90
6106;DHT22;3083;51.508;7.966;2022-11-09T13:14:35;15.40;99.90
6106;DHT22;3083;51.508;7.966;2022-11-09T13:20:40;15.20;99.90
6106;DHT22;3083;51.508;7.966;2022-11-09T13:23:30;15.10;99.90
6106;DHT22;3083;51.508;7.966;2022-11-09T13:25:57;15.10;99.90
6106;DHT22;3083;51.508;7.966;2022-11-09T13:28:43;15.00;99.90
6106;DHT22;3083;51.508;7.966;2022-11-09T13:31:12;15.00;99.90
6106;DHT22;3083;51.508;7.966;2022-11-09T13:33:39;14.90;99.90
6106;DHT22;3083;51.508;7.966;2022-11-09T13:36:16;14.90;99.90
6106;DHT22;3083;51.508;7.966;2022-11-09T13:38:43;14.80;99.90
6106;DHT22;3083;51.508;7.966;2022-11-09T13:41:39;14.80;99.90
6106;DHT22;3083;51.508;7.966;2022-11-09T13:44:12;14.80;99.90
6106;DHT22;3083;51.508;7.966;2022-11-09T13:46:43;14.90;99.90
6106;DHT22;3083;51.508;7.966;2022-11-09T13:49:38;14.90;99.90
6106;DHT22;3083;51.508;7.966;2022-11-09T13:52:40;15.00;99.90
6106;DHT22;3083;51.508;7.966;2022-11-09T13:55:17;14.90;99.90
6106;DHT22;3083;51.508;7.966;2022-11-09T13:57:47;15.00;99.90
6106;DHT22;3083;51.508;7.966;2022-11-09T14:00:17;15.00;99.90
6106;DHT22;3083;51.508;7.966;2022-11-09T14:03:16;14.90;99.90
6106;DHT22;3083;51.508;7.966;2022-11-09T14:05:43;15.00;99.90
6106;DHT22;3083;51.508;7.966;2022-11-09T14:08:18;15.00;99.90
6106;DHT22;3083;51.508;7.966;2022-11-09T14:10:59;15.00;99.90
6106;DHT22;3083;51.508;7.966;2022-11-09T14:13:51;15.10;99.90
6106;DHT22;3083;51.508;7.966;2022-11-09T14:16:26;15.10;99.90
6106;DHT22;3083;51.508;7.966;2022-11-09T14:19:04;15.00;99.90
6106;DHT22;3083;51.508;7.966;2022-11-09T14:21:42;15.00;99.90
6106;DHT22;3083;51.508;7.966;2022-11-09T14:24:18;14.90;99.90
6106;DHT22;3083;51.508;7.966;2022-11-09T14:27:02;14.90;99.90
6106;DHT22;3083;51.508;7.966;2022-11-09T14:29:30;14.90;99.90
6106;DHT22;3083;51.508;7.966;2022-11-09T14:32:00;14.90;99.90
6106;DHT22;3083;51.508;7.966;2022-11-09T14:34:29;14.90;99.90
6106;DHT22;3083;51.508;7.966;2022-11-09T14:36:56;14.80;99.90
6106;DHT22;3083;51.508;7.966;2022-11-09T14:39:26;14.70;99.90
6106;DHT22;3083;51.508;7.966;2022-11-09T14:41:54;14.70;99.90
6106;DHT22;3083;51.508;7.966;2022-11-09T14:44:25;14.70;99.90
6106;DHT22;3083;51.508;7.966;2022-11-09T14:46:54;14.70;99.90
6106;DHT22;3083;51.508;7.966;2022-11-09T14:49:23;14.70;99.90
6106;DHT22;3083;51.508;7.966;2022-11-09T14:51:52;14.60;99.90
6106;DHT22;3083;51.508;7.966;2022-11-09T14:54:24;14.50;99.90
6106;DHT22;3083;51.508;7.966;2022-11-09T14:56:52;14.50;99.90
6106;DHT22;3083;51.508;7.966;2022-11-09T14:59:28;14.40;99.90
6106;DHT22;3083;51.508;7.966;2022-11-09T15:02:01;14.40;99.90
6106;DHT22;3083;51.508;7.966;2022-11-09T15:04:29;14.30;99.90
6106;DHT22;3083;51.508;7.966;2022-11-09T15:07:00;14.30;99.90
6106;DHT22;3083;51.508;7.966;2022-11-09T15:09:32;14.30;99.90
6106;DHT22;3083;51.508;7.966;2022-11-09T15:12:00;14.30;99.90
6106;DHT22;3083;51.508;7.966;2022-11-09T15:14:30;14.20;99.90
6106;DHT22;3083;51.508;7.966;2022-11-09T15:17:06;14.20;99.90
6106;DHT22;3083;51.508;7.966;2022-11-09T15:19:47;14.20;99.90
6106;DHT22;3083;51.508;7.966;2022-11-09T15:22:39;14.10;99.90
6106;DHT22;3083;51.508;7.966;2022-11-09T15:25:22;14.10;99.90
6106;DHT22;3083;51.508;7.966;2022-11-09T15:27:59;14.00;99.90
6106;DHT22;3083;51.508;7.966;2022-11-09T15:30:29;14.00;99.90
6106;DHT22;3083;51.508;7.966;2022-11-09T15:32:56;14.00;99.90
6106;DHT22;3083;51.508;7.966;2022-11-09T15:35:24;14.00;99.90
6106;DHT22;3083;51.508;7.966;2022-11-09T15:37:52;13.90;99.90
6106;DHT22;3083;51.508;7.966;2022-11-09T15:40:22;13.90;99.90
6106;DHT22;3083;51.508;7.966;2022-11-09T15:42:49;13.90;99.90
6106;DHT22;3083;51.508;7.966;2022-11-09T15:45:18;13.90;99.90
6106;DHT22;3083;51.508;7.966;2022-11-09T15:47:49;13.80;99.90
6106;DHT22;3083;51.508;7.966;2022-11-09T15:50:19;13.80;99.90
6106;DHT22;3083;51.508;7.966;2022-11-09T15:52:46;13.80;99.90
6106;DHT22;3083;51.508;7.966;2022-11-09T15:55:16;13.80;99.90
6106;DHT22;3083;51.508;7.966;2022-11-09T15:57:46;13.70;99.90
6106;DHT22;3083;51.508;7.966;2022-11-09T16:00:15;13.80;99.90
6106;DHT22;3083;51.508;7.966;2022-11-09T16:02:43;13.70;99.90
6106;DHT22;3083;51.508;7.966;2022-11-09T16:05:11;13.60;99.90
6106;DHT22;3083;51.508;7.966;2022-11-09T16:07:46;13.60;99.90
6106;DHT22;3083;51.508;7.966;2022-11-09T16:10:15;13.60;99.90
6106;DHT22;3083;51.508;7.966;2022-11-09T16:12:44;13.50;99.90
6106;DHT22;3083;51.508;7.966;2022-11-09T16:15:12;13.50;99.90
6106;DHT22;3083;51.508;7.966;2022-11-09T16:17:39;13.50;99.90
6106;DHT22;3083;51.508;7.966;2022-11-09T16:20:06;13.50;99.90
6106;DHT22;3083;51.508;7.966;2022-11-09T16:22:33;13.40;99.90
6106;DHT22;3083;51.508;7.966;2022-11-09T16:25:00;13.40;99.90
6106;DHT22;3083;51.508;7.966;2022-11-09T16:27:29;13.40;99.90
6106;DHT22;3083;51.508;7.966;2022-11-09T16:29:56;13.40;99.90